Theresa Ann — WDD9115 — position and weather

sailwx.info

Track history (hours):
 
Tides and Currents Weather Stations Pressure Air Temp Water Temp Dewpoint Dewpoint Depression Visibility Wind Speed Wind Dir Waves Ship Positions

Theresa Ann

Owner: Ingram Barge Company LLC, Nashville, TN. More information available from US FCC via Universal Licensing System and Coast Guard Vessel Documentation Center.

Last reported at 2018-Feb-21 10:28 UTC. Time now 2018-Feb-21 11:50 UTC.
Position N 38°32' W 090°15'.

Length 18 m.

Type: Tug. MMSI: 367307120.

Date/timePositionNaut miles runAvg speedWind from/ knotsBaromVisibWave heightAir tempDewpointWater temp
2018-Feb-21 10:28N 38°32' W 090°15'0 0.0
2018-Feb-21 04:33N 38°32' W 090°15'0 3.5
2018-Feb-21 04:30N 38°32' W 090°15'0 0.0
2018-Feb-20 18:34N 38°32' W 090°15'0 0.0
2018-Feb-20 15:23N 38°32' W 090°15'1 0.1
2018-Feb-20 05:41N 38°31' W 090°16'0 0.0
2018-Feb-20 05:11N 38°31' W 090°16'0 1.1
2018-Feb-20 04:53N 38°32' W 090°15'6 3.9
2018-Feb-20 03:26N 38°36' W 090°11'5 1.5
2018-Feb-19 23:43N 38°32' W 090°15'0 0.1
2018-Feb-19 23:26N 38°32' W 090°15'0 0.1
2018-Feb-19 21:02N 38°32' W 090°16'0 3.6
2018-Feb-19 20:56N 38°31' W 090°16'0 0.3
2018-Feb-19 20:16N 38°31' W 090°16'0 0.2
2018-Feb-19 18:10N 38°32' W 090°16'1 1.8
2018-Feb-19 17:48N 38°32' W 090°15'0 0.1
2018-Feb-19 13:04N 38°32' W 090°15'1 0.0
2018-Feb-18 16:55N 38°32' W 090°15'1 0.6
2018-Feb-18 15:20N 38°33' W 090°15'0 0.1
2018-Feb-18 15:00N 38°33' W 090°15'0 0.1
2018-Feb-18 14:29N 38°33' W 090°15'1 0.6
2018-Feb-18 12:44N 38°32' W 090°16'0 0.2
2018-Feb-18 12:29N 38°32' W 090°16'0 0.1
2018-Feb-18 12:00N 38°32' W 090°16'0 0.1
2018-Feb-18 11:24N 38°32' W 090°16'0 0.0
2018-Feb-18 05:03N 38°32' W 090°15'0 4.3
2018-Feb-18 05:00N 38°32' W 090°15'0 0.7
2018-Feb-18 04:22N 38°32' W 090°16'0 0.1
2018-Feb-18 03:49N 38°32' W 090°15'0 0.1
2018-Feb-18 03:17N 38°32' W 090°16'0 0.0
2018-Feb-18 01:47N 38°32' W 090°16'0 0.2
2018-Feb-18 01:12N 38°32' W 090°15'0 0.2
2018-Feb-18 00:55N 38°32' W 090°15'1 0.2
2018-Feb-17 22:10N 38°32' W 090°15'1 0.4
2018-Feb-17 20:40N 38°33' W 090°15'1 0.4
2018-Feb-17 16:55N 38°32' W 090°16'0 0.0
2018-Feb-17 14:57N 38°32' W 090°16'0 0.2
2018-Feb-17 14:20N 38°32' W 090°16'0 0.2
2018-Feb-17 12:26N 38°32' W 090°15'1 1.5
2018-Feb-17 11:47N 38°33' W 090°15'2 0.2
2018-Feb-17 05:25N 38°31' W 090°16'0 0.1
2018-Feb-17 02:35N 38°32' W 090°16'110.4
2018-Feb-17 02:30N 38°33' W 090°15'0 0.1
2018-Feb-17 01:32N 38°33' W 090°15'0 0.0
2018-Feb-16 15:12N 38°32' W 090°15'1 0.2
2018-Feb-16 09:03N 38°31' W 090°16'0 0.1
2018-Feb-16 08:46N 38°31' W 090°16'1 3.1
2018-Feb-16 08:30N 38°32' W 090°15'1 0.3
2018-Feb-16 05:35N 38°31' W 090°16'1 2.2
2018-Feb-16 05:17N 38°32' W 090°15'0 0.1
2018-Feb-16 00:06N 38°31' W 090°16'1 0.1
2018-Feb-15 14:54N 38°32' W 090°15'0 0.3
2018-Feb-15 13:58N 38°33' W 090°15'0 0.0
2018-Feb-14 22:19N 38°32' W 090°15'0 0.0
2018-Feb-14 15:20N 38°33' W 090°15'0 0.3
2018-Feb-14 15:00N 38°33' W 090°15'0 0.0
2018-Feb-14 05:43N 38°33' W 090°15'0 0.3
2018-Feb-14 05:24N 38°32' W 090°15'0 0.2
2018-Feb-14 04:39N 38°32' W 090°15'0 0.5
2018-Feb-14 04:24N 38°32' W 090°15'0 0.3
2018-Feb-14 03:58N 38°32' W 090°15'0 0.4
2018-Feb-14 03:22N 38°33' W 090°15'0 0.0
2018-Feb-14 00:09N 38°33' W 090°15'0 0.3
2018-Feb-13 23:53N 38°33' W 090°15'0 0.2
2018-Feb-13 22:32N 38°32' W 090°15'0 0.1
2018-Feb-13 15:47N 38°32' W 090°15'1 0.1
2018-Feb-13 09:56N 38°33' W 090°15'0 0.1
2018-Feb-13 06:27N 38°33' W 090°15'0 0.6
2018-Feb-13 06:00N 38°33' W 090°15'0 0.1
2018-Feb-13 02:39N 38°33' W 090°15'0 0.3
2018-Feb-13 02:31N 38°33' W 090°15'0 0.0
2018-Feb-13 01:03N 38°33' W 090°15'0 0.2
2018-Feb-13 00:58N 38°33' W 090°15'0 0.0
2018-Feb-12 19:31N 38°33' W 090°15'0 0.3
2018-Feb-12 18:27N 38°33' W 090°15'0 0.1
2018-Feb-12 16:34N 38°33' W 090°15'0 0.0
2018-Feb-12 13:21N 38°33' W 090°15'1 0.2
2018-Feb-12 06:31N 38°32' W 090°15'0 5.9
2018-Feb-12 06:30N 38°32' W 090°16'1 0.1
2018-Feb-12 01:25N 38°32' W 090°15'0 0.1
2018-Feb-12 00:32N 38°32' W 090°15'0 0.5
2018-Feb-12 00:28N 38°32' W 090°15'0 0.1
2018-Feb-11 23:56N 38°33' W 090°15'1 0.1
2018-Feb-11 16:08N 38°32' W 090°16'0 0.0
2018-Feb-11 15:11N 38°32' W 090°16'  
Track history (hours):
 
Tides and Currents Weather Stations Pressure Air Temp Water Temp Dewpoint Dewpoint Depression Visibility Wind Speed Wind Dir Waves Ship Positions

Theresa Ann

Owner: Ingram Barge Company LLC, Nashville, TN. More information available from US FCC via Universal Licensing System and Coast Guard Vessel Documentation Center.

Last reported at 2018-Feb-21 10:28 UTC. Time now 2018-Feb-21 11:50 UTC.
Position N 38°32' W 090°15'.

Length 18 m.

Type: Tug. MMSI: 367307120.

Date/timePositionNaut miles runAvg speedWind from/ knotsBaromVisibWave heightAir tempDewpointWater temp
2018-Feb-21 10:28N 38°32' W 090°15'0 0.0
2018-Feb-21 04:33N 38°32' W 090°15'0 3.5
2018-Feb-21 04:30N 38°32' W 090°15'0 0.0
2018-Feb-20 18:34N 38°32' W 090°15'0 0.0
2018-Feb-20 15:23N 38°32' W 090°15'1 0.1
2018-Feb-20 05:41N 38°31' W 090°16'0 0.0
2018-Feb-20 05:11N 38°31' W 090°16'0 1.1
2018-Feb-20 04:53N 38°32' W 090°15'6 3.9
2018-Feb-20 03:26N 38°36' W 090°11'5 1.5
2018-Feb-19 23:43N 38°32' W 090°15'0 0.1
2018-Feb-19 23:26N 38°32' W 090°15'0 0.1
2018-Feb-19 21:02N 38°32' W 090°16'0 3.6
2018-Feb-19 20:56N 38°31' W 090°16'0 0.3
2018-Feb-19 20:16N 38°31' W 090°16'0 0.2
2018-Feb-19 18:10N 38°32' W 090°16'1 1.8
2018-Feb-19 17:48N 38°32' W 090°15'0 0.1
2018-Feb-19 13:04N 38°32' W 090°15'1 0.0
2018-Feb-18 16:55N 38°32' W 090°15'1 0.6
2018-Feb-18 15:20N 38°33' W 090°15'0 0.1
2018-Feb-18 15:00N 38°33' W 090°15'0 0.1
2018-Feb-18 14:29N 38°33' W 090°15'1 0.6
2018-Feb-18 12:44N 38°32' W 090°16'0 0.2
2018-Feb-18 12:29N 38°32' W 090°16'0 0.1
2018-Feb-18 12:00N 38°32' W 090°16'0 0.1
2018-Feb-18 11:24N 38°32' W 090°16'0 0.0
2018-Feb-18 05:03N 38°32' W 090°15'0 4.3
2018-Feb-18 05:00N 38°32' W 090°15'0 0.7
2018-Feb-18 04:22N 38°32' W 090°16'0 0.1
2018-Feb-18 03:49N 38°32' W 090°15'0 0.1
2018-Feb-18 03:17N 38°32' W 090°16'0 0.0
2018-Feb-18 01:47N 38°32' W 090°16'0 0.2
2018-Feb-18 01:12N 38°32' W 090°15'0 0.2
2018-Feb-18 00:55N 38°32' W 090°15'1 0.2
2018-Feb-17 22:10N 38°32' W 090°15'1 0.4
2018-Feb-17 20:40N 38°33' W 090°15'1 0.4
2018-Feb-17 16:55N 38°32' W 090°16'0 0.0
2018-Feb-17 14:57N 38°32' W 090°16'0 0.2
2018-Feb-17 14:20N 38°32' W 090°16'0 0.2
2018-Feb-17 12:26N 38°32' W 090°15'1 1.5
2018-Feb-17 11:47N 38°33' W 090°15'2 0.2
2018-Feb-17 05:25N 38°31' W 090°16'0 0.1
2018-Feb-17 02:35N 38°32' W 090°16'110.4
2018-Feb-17 02:30N 38°33' W 090°15'0 0.1
2018-Feb-17 01:32N 38°33' W 090°15'0 0.0
2018-Feb-16 15:12N 38°32' W 090°15'1 0.2
2018-Feb-16 09:03N 38°31' W 090°16'0 0.1
2018-Feb-16 08:46N 38°31' W 090°16'1 3.1
2018-Feb-16 08:30N 38°32' W 090°15'1 0.3
2018-Feb-16 05:35N 38°31' W 090°16'1 2.2
2018-Feb-16 05:17N 38°32' W 090°15'0 0.1
2018-Feb-16 00:06N 38°31' W 090°16'1 0.1
2018-Feb-15 14:54N 38°32' W 090°15'0 0.3
2018-Feb-15 13:58N 38°33' W 090°15'0 0.0
2018-Feb-14 22:19N 38°32' W 090°15'0 0.0
2018-Feb-14 15:20N 38°33' W 090°15'0 0.3
2018-Feb-14 15:00N 38°33' W 090°15'0 0.0
2018-Feb-14 05:43N 38°33' W 090°15'0 0.3
2018-Feb-14 05:24N 38°32' W 090°15'0 0.2
2018-Feb-14 04:39N 38°32' W 090°15'0 0.5
2018-Feb-14 04:24N 38°32' W 090°15'0 0.3
2018-Feb-14 03:58N 38°32' W 090°15'0 0.4
2018-Feb-14 03:22N 38°33' W 090°15'0 0.0
2018-Feb-14 00:09N 38°33' W 090°15'0 0.3
2018-Feb-13 23:53N 38°33' W 090°15'0 0.2
2018-Feb-13 22:32N 38°32' W 090°15'0 0.1
2018-Feb-13 15:47N 38°32' W 090°15'1 0.1
2018-Feb-13 09:56N 38°33' W 090°15'0 0.1
2018-Feb-13 06:27N 38°33' W 090°15'0 0.6
2018-Feb-13 06:00N 38°33' W 090°15'0 0.1
2018-Feb-13 02:39N 38°33' W 090°15'0 0.3
2018-Feb-13 02:31N 38°33' W 090°15'0 0.0
2018-Feb-13 01:03N 38°33' W 090°15'0 0.2
2018-Feb-13 00:58N 38°33' W 090°15'0 0.0
2018-Feb-12 19:31N 38°33' W 090°15'0 0.3
2018-Feb-12 18:27N 38°33' W 090°15'0 0.1
2018-Feb-12 16:34N 38°33' W 090°15'0 0.0
2018-Feb-12 13:21N 38°33' W 090°15'1 0.2
2018-Feb-12 06:31N 38°32' W 090°15'0 5.9
2018-Feb-12 06:30N 38°32' W 090°16'1 0.1
2018-Feb-12 01:25N 38°32' W 090°15'0 0.1
2018-Feb-12 00:32N 38°32' W 090°15'0 0.5
2018-Feb-12 00:28N 38°32' W 090°15'0 0.1
2018-Feb-11 23:56N 38°33' W 090°15'1 0.1
2018-Feb-11 16:08N 38°32' W 090°16'0 0.0
2018-Feb-11 15:11N 38°32' W 090°16'  

Dump ship's entire track history